Time;durP1;ratioP1;P1;durP2;ratioP2;P2;SDS_P1;SDS_P2;PMS_P1;PMS_P2;Temp;Humidity;BMP_temperature;BMP_pressure;BME280_temperature;BME280_humidity;BME280_pressure;Samples;Min_cycle;Max_cycle;Signal;HPM_P1;HPM_P2
2023/04/13 00:00:56;;;;;;;6.07;1.20;;;10.00;99.90;;;;;;4975314;28;20050;-89
2023/04/13 00:03:22;;;;;;;2.03;0.77;;;10.10;99.90;;;;;;4974827;28;20049;-89
2023/04/13 00:05:51;;;;;;;0.88;0.50;;;10.60;99.90;;;;;;4975036;28;20033;-89
2023/04/13 00:08:17;;;;;;;1.80;0.60;;;9.10;99.90;;;;;;4975642;28;20031;-89
2023/04/13 00:10:44;;;;;;;2.40;0.75;;;9.50;99.90;;;;;;4975252;28;20395;-88
2023/04/13 00:13:17;;;;;;;1.70;0.73;;;10.00;99.90;;;;;;4975427;28;20039;-89
2023/04/13 00:15:43;;;;;;;1.25;0.52;;;9.10;99.90;;;;;;4975651;28;20546;-89
2023/04/13 00:18:10;;;;;;;0.68;0.68;;;9.70;99.90;;;;;;4973872;28;20043;-89
2023/04/13 00:20:36;;;;;;;0.68;0.65;;;10.00;99.90;;;;;;4975034;28;20027;-90
2023/04/13 00:23:02;;;;;;;0.88;0.70;;;10.80;99.90;;;;;;4974664;28;20034;-90
2023/04/13 00:25:30;;;;;;;2.83;0.88;;;10.10;99.90;;;;;;4974214;28;20467;-89
2023/04/13 00:27:56;;;;;;;3.55;1.58;;;10.30;99.90;;;;;;4974789;28;20475;-89
2023/04/13 00:30:21;;;;;;;1.60;0.70;;;9.20;99.90;;;;;;4974376;28;20034;-89
2023/04/13 00:32:48;;;;;;;4.03;0.90;;;10.00;99.90;;;;;;4974238;28;20033;-89
2023/04/13 00:35:23;;;;;;;1.25;0.95;;;9.80;99.90;;;;;;4974358;28;20023;-89
2023/04/13 00:37:50;;;;;;;2.28;0.90;;;9.80;99.90;;;;;;4974246;28;20043;-89
2023/04/13 00:40:16;;;;;;;1.95;0.90;;;9.20;99.90;;;;;;4973251;28;20386;-89
2023/04/13 00:42:47;;;;;;;1.17;0.93;;;10.20;99.90;;;;;;4973975;28;20111;-89
2023/04/13 00:45:13;;;;;;;;;;;7.80;99.90;;;;;;4974168;28;20030;-88
2023/04/13 00:47:47;;;;;;;1.20;0.55;;;10.20;99.90;;;;;;4973518;28;19925;-88
2023/04/13 00:50:22;;;;;;;0.77;0.50;;;9.80;99.90;;;;;;4974172;28;20030;-88
2023/04/13 00:52:48;;;;;;;1.52;0.77;;;9.70;99.90;;;;;;4974768;28;20102;-87
2023/04/13 00:55:19;;;;;;;1.30;0.55;;;9.30;99.90;;;;;;4984095;28;20027;-89
2023/04/13 00:57:48;;;;;;;1.33;0.70;;;10.00;99.90;;;;;;4973578;28;20046;-89
2023/04/13 01:00:16;;;;;;;1.48;0.50;;;9.00;99.90;;;;;;4973494;28;20031;-88
2023/04/13 01:02:53;;;;;;;1.10;0.50;;;9.20;99.90;;;;;;4973876;28;20141;-89
2023/04/13 01:05:19;;;;;;;0.70;0.70;;;10.40;99.90;;;;;;4973333;28;20023;-89
2023/04/13 01:08:19;;;;;;;1.38;0.60;;;9.20;99.90;;;;;;4973192;28;20090;-88
2023/04/13 01:10:53;;;;;;;2.65;0.70;;;9.20;99.90;;;;;;4973895;28;20053;-89
2023/04/13 01:13:45;;;;;;;1.45;0.68;;;9.90;99.90;;;;;;4973307;28;20038;-88
2023/04/13 01:16:24;;;;;;;0.95;0.70;;;9.20;99.90;;;;;;4973526;28;20061;-87
2023/04/13 01:18:53;;;;;;;2.75;0.80;;;9.90;99.90;;;;;;4973476;28;20399;-90
2023/04/13 01:21:27;;;;;;;1.10;0.60;;;8.90;99.90;;;;;;4972974;28;20065;-89
2023/04/13 01:24:28;;;;;;;1.52;0.70;;;9.80;99.90;;;;;;4974044;28;20386;-90
2023/04/13 01:27:28;;;;;;;1.13;0.63;;;10.70;99.90;;;;;;4878406;28;20033;-90
2023/04/13 01:30:00;;;;;;;1.77;0.70;;;9.30;99.90;;;;;;4973642;28;20074;-89
2023/04/13 01:32:52;;;;;;;2.05;0.52;;;10.30;99.90;;;;;;4973657;28;20050;-89
2023/04/13 01:35:26;;;;;;;1.05;0.52;;;9.50;99.90;;;;;;4968689;28;20035;-90
2023/04/13 01:38:11;;;;;;;0.88;0.40;;;10.40;99.90;;;;;;4974098;28;20062;-89
2023/04/13 01:40:40;;;;;;;3.00;0.50;;;10.60;99.90;;;;;;4968682;28;20403;-89
2023/04/13 01:43:54;;;;;;;2.13;0.50;;;10.20;99.90;;;;;;4954794;28;20031;-89
2023/04/13 01:46:36;;;;;;;1.70;0.50;;;9.30;99.90;;;;;;4970173;23;20051;-89
2023/04/13 01:49:03;;;;;;;3.45;1.00;;;8.60;99.90;;;;;;4972452;28;20050;-89
2023/04/13 01:51:45;;;;;;;3.90;1.27;;;10.60;99.90;;;;;;4973733;28;20490;-90
2023/04/13 01:54:41;;;;;;;1.17;0.50;;;10.00;99.90;;;;;;4973486;28;20035;-88
2023/04/13 01:57:16;;;;;;;1.55;0.60;;;9.30;99.90;;;;;;4972536;28;20045;-87
2023/04/13 01:59:43;;;;;;;1.95;0.77;;;10.50;99.90;;;;;;4973395;28;20487;-89
2023/04/13 02:02:21;;;;;;;3.72;0.98;;;10.20;99.90;;;;;;4972828;28;20158;-89
2023/04/13 02:05:08;;;;;;;5.50;0.70;;;9.50;99.90;;;;;;4972640;28;20117;-89
2023/04/13 02:07:43;;;;;;;7.15;1.38;;;9.30;99.90;;;;;;4975315;28;20034;-89
2023/04/13 02:10:10;;;;;;;3.67;1.08;;;10.10;99.90;;;;;;4976257;28;20479;-89
2023/04/13 02:12:50;;;;;;;6.13;0.90;;;9.40;99.90;;;;;;4976917;28;20026;-89
2023/04/13 02:15:51;;;;;;;1.95;0.85;;;9.20;99.90;;;;;;4975933;28;20035;-90
2023/04/13 02:18:19;;;;;;;;;;;10.40;99.90;;;;;;4950308;28;20042;-90
2023/04/13 02:21:27;;;;;;;2.78;0.80;;;9.20;99.90;;;;;;4976338;28;19913;-89
2023/04/13 02:23:53;;;;;;;3.35;1.10;;;10.50;99.90;;;;;;4976439;28;20475;-89
2023/04/13 02:26:27;;;;;;;3.58;0.95;;;9.90;99.90;;;;;;4975237;28;20107;-89
2023/04/13 02:29:22;;;;;;;2.47;0.80;;;9.60;99.90;;;;;;4976682;28;20099;-89
2023/04/13 02:31:49;;;;;;;2.33;0.70;;;10.00;99.90;;;;;;4972612;28;20109;-89
2023/04/13 02:34:41;;;;;;;4.03;0.80;;;10.00;99.90;;;;;;4976167;28;20035;-89
2023/04/13 02:37:24;;;;;;;7.32;1.08;;;9.40;99.90;;;;;;4940826;28;20117;-90
2023/04/13 02:40:07;;;;;;;2.03;0.75;;;9.40;99.90;;;;;;4975373;28;20124;-90
2023/04/13 02:42:33;;;;;;;6.85;1.15;;;9.40;99.90;;;;;;4976021;28;20042;-89
2023/04/13 02:45:11;;;;;;;5.75;0.75;;;10.00;99.90;;;;;;4975662;28;20055;-89
2023/04/13 02:47:48;;;;;;;4.38;0.52;;;9.30;99.90;;;;;;5079867;23;20039;-89
2023/04/13 02:50:40;;;;;;;3.65;0.80;;;9.90;99.90;;;;;;4976136;28;20066;-88
2023/04/13 02:53:06;;;;;;;5.95;0.98;;;10.20;99.90;;;;;;4952340;28;20126;-90
2023/04/13 02:55:35;;;;;;;4.85;1.00;;;10.20;99.90;;;;;;4975809;28;20035;-90
2023/04/13 02:58:01;;;;;;;4.03;0.77;;;9.20;99.90;;;;;;4975831;28;20046;-89
2023/04/13 03:00:27;;;;;;;4.60;1.00;;;9.10;99.90;;;;;;4975172;28;20023;-89
2023/04/13 03:03:02;;;;;;;6.10;1.00;;;9.90;99.90;;;;;;4975919;28;20463;-89
2023/04/13 03:05:30;;;;;;;3.70;0.77;;;10.30;99.90;;;;;;4975972;28;20030;-89
2023/04/13 03:07:58;;;;;;;5.38;1.38;;;9.10;99.90;;;;;;4975177;28;20026;-88
2023/04/13 03:10:24;;;;;;;3.55;0.90;;;9.90;99.90;;;;;;4975525;28;20063;-89
2023/04/13 03:12:50;;;;;;;3.58;0.90;;;10.30;99.90;;;;;;4975751;28;20027;-89
2023/04/13 03:15:32;;;;;;;8.48;0.90;;;10.30;99.90;;;;;;4975264;28;20095;-89
2023/04/13 03:18:20;;;;;;;6.93;0.93;;;10.00;99.90;;;;;;4974999;28;20051;-91
2023/04/13 03:21:01;;;;;;;2.83;0.80;;;10.20;99.90;;;;;;4975137;28;20154;-90
2023/04/13 03:23:27;;;;;;;11.02;1.83;;;9.90;99.90;;;;;;4975832;28;20110;-89
2023/04/13 03:26:01;;;;;;;8.82;0.85;;;9.90;99.90;;;;;;4975915;28;20476;-89
2023/04/13 03:28:26;;;;;;;5.28;0.70;;;8.60;99.90;;;;;;4975477;28;20023;-90
2023/04/13 03:30:52;;;;;;;8.18;1.10;;;9.70;99.90;;;;;;4975905;28;20030;-90
2023/04/13 03:33:32;;;;;;;5.90;0.90;;;10.30;99.90;;;;;;4975438;28;20105;-89
2023/04/13 03:35:58;;;;;;;9.13;1.15;;;8.80;99.90;;;;;;4975031;28;20027;-89
2023/04/13 03:38:36;;;;;;;5.05;1.38;;;9.70;99.90;;;;;;4975442;28;20045;-89
2023/04/13 03:41:02;;;;;;;7.07;1.58;;;9.30;99.90;;;;;;4989930;28;20046;-89
2023/04/13 03:43:30;;;;;;;6.28;1.20;;;9.20;99.90;;;;;;4975991;28;20035;-89
2023/04/13 03:45:56;;;;;;;11.32;1.48;;;9.20;99.90;;;;;;4975566;28;20023;-91
2023/04/13 03:48:21;;;;;;;8.48;1.30;;;9.40;99.90;;;;;;4975105;28;20041;-90
2023/04/13 03:50:53;;;;;;;5.32;1.00;;;9.80;99.90;;;;;;4975101;28;20438;-91
2023/04/13 03:53:21;;;;;;;6.85;1.30;;;10.00;99.90;;;;;;4975322;28;20069;-88
2023/04/13 03:55:49;;;;;;;6.30;1.27;;;10.30;99.90;;;;;;4974638;28;20023;-89
2023/04/13 03:58:20;;;;;;;13.85;1.85;;;10.20;99.90;;;;;;4975571;28;20043;-89
2023/04/13 04:00:46;;;;;;;6.63;1.35;;;10.00;99.90;;;;;;4975257;28;20517;-89
2023/04/13 04:03:12;;;;;;;3.85;1.10;;;10.20;99.90;;;;;;4975084;28;20035;-88
2023/04/13 04:05:46;;;;;;;6.70;1.65;;;9.30;99.90;;;;;;4975714;28;20030;-90
2023/04/13 04:08:11;;;;;;;4.80;1.27;;;9.60;99.90;;;;;;4975016;28;20038;-88
2023/04/13 04:10:52;;;;;;;9.13;1.38;;;10.00;99.90;;;;;;4973954;28;20023;-88
2023/04/13 04:13:26;;;;;;;5.95;1.50;;;9.10;99.90;;;;;;4974234;28;20035;-90
2023/04/13 04:15:55;;;;;;;4.20;1.33;;;8.40;99.90;;;;;;4975016;28;20026;-91
2023/04/13 04:18:21;;;;;;;13.85;2.17;;;10.00;99.90;;;;;;4973773;28;20111;-90
2023/04/13 04:20:55;;;;;;;8.32;1.70;;;9.90;99.90;;;;;;4975105;28;20531;-90
2023/04/13 04:23:21;;;;;;;10.45;1.67;;;9.40;99.90;;;;;;4974612;28;20030;-89
2023/04/13 04:26:01;;;;;;;8.15;1.92;;;10.10;99.90;;;;;;4974377;28;20050;-89
2023/04/13 04:28:42;;;;;;;11.77;1.33;;;7.90;99.90;;;;;;4975104;28;20199;-89
2023/04/13 04:31:11;;;;;;;6.05;1.25;;;9.40;99.90;;;;;;4973071;28;20023;-91
2023/04/13 04:33:39;;;;;;;7.07;1.83;;;10.30;99.90;;;;;;4974707;28;20054;-90
2023/04/13 04:36:12;;;;;;;8.55;1.75;;;10.50;99.90;;;;;;4973658;28;20035;-90
2023/04/13 04:38:41;;;;;;;4.97;1.35;;;10.20;99.90;;;;;;4973828;28;20038;-90
2023/04/13 04:41:53;;;;;;;3.65;1.05;;;9.40;99.90;;;;;;4974319;28;20027;-90
2023/04/13 04:47:20;;;;;;;6.50;1.20;;;9.90;99.90;;;;;;4857680;29;20065;-89
2023/04/13 04:49:46;;;;;;;9.23;1.48;;;10.20;99.90;;;;;;4858705;29;20037;-89
2023/04/13 04:52:11;;;;;;;5.28;1.35;;;9.90;99.90;;;;;;4857756;29;20033;-89
2023/04/13 04:54:46;;;;;;;4.18;0.80;;;9.90;99.90;;;;;;4858612;29;20033;-89
2023/04/13 04:57:26;;;;;;;8.18;1.25;;;9.70;99.90;;;;;;4877715;29;20043;-89
2023/04/13 04:59:52;;;;;;;4.57;1.25;;;9.80;99.90;;;;;;4951859;29;20031;-89
2023/04/13 05:02:32;;;;;;;9.38;1.08;;;10.60;99.90;;;;;;4954343;29;20055;-90
2023/04/13 05:05:15;;;;;;;3.07;1.20;;;10.10;99.90;;;;;;4956844;29;20047;-89
2023/04/13 05:07:52;;;;;;;8.32;1.88;;;9.40;99.90;;;;;;4954228;29;20027;-90
2023/04/13 05:10:18;;;;;;;4.13;1.20;;;10.10;99.90;;;;;;4954751;29;20031;-90
2023/04/13 05:12:44;;;;;;;7.13;1.33;;;9.30;99.90;;;;;;4954461;29;20027;-90
2023/04/13 05:15:13;;;;;;;8.32;1.30;;;10.40;99.90;;;;;;5076066;23;20582;-89
2023/04/13 05:18:26;;;;;;;11.82;2.00;;;9.20;99.90;;;;;;4990970;28;20037;-89
2023/04/13 05:21:00;;;;;;;6.70;1.00;;;9.20;99.90;;;;;;4959084;28;20159;-90
2023/04/13 05:23:35;;;;;;;3.55;0.80;;;9.30;99.90;;;;;;4960110;28;20149;-90
2023/04/13 05:26:01;;;;;;;3.00;0.93;;;8.60;99.90;;;;;;4962227;28;20042;-90
2023/04/13 05:28:36;;;;;;;6.28;1.20;;;10.20;99.90;;;;;;4958977;28;20027;-90
2023/04/13 05:31:23;;;;;;;4.07;0.82;;;10.30;99.90;;;;;;4960982;28;20039;-90
2023/04/13 05:34:11;;;;;;;4.72;1.08;;;9.90;99.90;;;;;;4960642;28;20046;-90
2023/04/13 05:36:56;;;;;;;2.85;0.80;;;9.90;99.90;;;;;;4960379;28;20507;-89
2023/04/13 05:39:34;;;;;;;5.13;0.98;;;9.00;99.90;;;;;;4990534;28;20038;-89
2023/04/13 05:42:25;;;;;;;3.08;1.15;;;9.90;99.90;;;;;;4991879;28;20054;-90
2023/04/13 05:45:18;;;;;;;6.88;0.77;;;9.00;99.90;;;;;;4996244;28;20026;-89
2023/04/13 05:48:31;;;;;;;3.25;0.85;;;9.00;99.90;;;;;;5022579;23;20010;-90
2023/04/13 05:51:00;;;;;;;4.28;0.60;;;9.00;99.90;;;;;;4992286;28;20049;-90
2023/04/13 05:53:33;;;;;;;2.75;0.55;;;10.00;99.90;;;;;;4994813;28;20116;-90
2023/04/13 05:56:04;;;;;;;2.45;0.70;;;9.90;99.90;;;;;;4994466;28;20493;-89
2023/04/13 05:59:15;;;;;;;3.33;1.08;;;9.10;99.90;;;;;;4989914;28;20482;-89
2023/04/13 06:02:02;;;;;;;4.70;1.20;;;10.40;99.90;;;;;;4972089;28;20113;-89
2023/04/13 06:05:11;;;;;;;5.38;1.33;;;9.30;99.90;;;;;;4995580;28;20037;-90
2023/04/13 06:07:58;;;;;;;5.20;1.50;;;9.40;99.90;;;;;;4996579;28;20446;-90
2023/04/13 06:10:43;;;;;;;8.43;1.00;;;9.10;99.90;;;;;;4995630;28;20026;-89
2023/04/13 06:16:14;;;;;;;3.42;1.20;;;9.20;99.90;;;;;;4936548;29;20091;-90
2023/04/13 06:18:40;;;;;;;10.68;1.73;;;10.50;99.90;;;;;;4994284;28;20042;-91
2023/04/13 06:21:25;;;;;;;7.85;1.85;;;9.30;99.90;;;;;;4996307;28;20026;-90
2023/04/13 06:24:02;;;;;;;8.68;2.35;;;9.40;99.90;;;;;;4995741;28;20037;-90
2023/04/13 06:26:43;;;;;;;12.55;1.95;;;8.70;99.90;;;;;;5003746;28;20038;-89
2023/04/13 06:29:15;;;;;;;9.60;2.08;;;9.00;99.90;;;;;;5001384;28;20022;-90
2023/04/13 06:31:53;;;;;;;7.00;1.35;;;10.00;99.90;;;;;;4994984;28;20114;-89
2023/04/13 06:34:24;;;;;;;8.48;1.80;;;9.90;99.90;;;;;;4995435;28;20081;-90
2023/04/13 06:37:08;;;;;;;;;;;9.90;99.90;;;;;;4995349;28;20344;-89
2023/04/13 06:39:36;;;;;;;10.20;2.00;;;9.20;99.90;;;;;;4987118;28;19918;-89
2023/04/13 06:42:09;;;;;;;10.45;1.98;;;10.90;99.90;;;;;;4994519;28;20489;-89
2023/04/13 06:44:52;;;;;;;9.73;1.70;;;9.50;99.90;;;;;;4995056;28;20061;-89
2023/04/13 06:47:18;;;;;;;16.65;2.42;;;10.00;99.90;;;;;;4995260;28;20030;-89
2023/04/13 06:50:09;;;;;;;9.02;1.80;;;10.10;99.90;;;;;;4994802;28;20148;-89
2023/04/13 06:52:46;;;;;;;9.13;2.20;;;9.10;99.90;;;;;;4994928;28;20190;-89
2023/04/13 06:55:18;;;;;;;15.43;2.30;;;10.40;99.90;;;;;;4995082;28;20038;-90
2023/04/13 06:57:44;;;;;;;12.80;2.28;;;9.60;99.90;;;;;;4995394;28;20447;-90
2023/04/13 07:00:28;;;;;;;18.08;2.63;;;9.20;99.90;;;;;;4994712;28;20117;-89
2023/04/13 07:03:14;;;;;;;20.05;2.03;;;9.10;99.90;;;;;;4995665;28;20023;-89
2023/04/13 07:05:53;;;;;;;11.13;2.10;;;9.20;99.90;;;;;;4994762;28;20041;-89
2023/04/13 07:08:27;;;;;;;14.77;3.70;;;10.20;99.90;;;;;;4995169;28;20113;-88
2023/04/13 07:11:12;;;;;;;20.23;2.75;;;10.10;99.90;;;;;;4994942;28;20475;-89
2023/04/13 07:13:55;;;;;;;12.95;2.83;;;8.60;99.90;;;;;;4995057;28;20045;-86
2023/04/13 07:16:27;;;;;;;17.00;2.90;;;9.30;99.90;;;;;;4995434;28;20026;-90
2023/04/13 07:18:53;;;;;;;17.02;2.20;;;10.50;99.90;;;;;;4996103;28;20370;-90
2023/04/13 07:21:21;;;;;;;16.73;2.80;;;9.30;99.90;;;;;;4994748;28;20109;-89
2023/04/13 07:23:47;;;;;;;14.48;3.05;;;9.70;99.90;;;;;;4994841;28;20098;-85
2023/04/13 07:26:19;;;;;;;19.10;3.35;;;10.40;99.90;;;;;;4994439;28;20034;-86
2023/04/13 07:29:12;;;;;;;12.55;2.83;;;9.50;99.90;;;;;;4994349;28;20023;-87
2023/04/13 07:31:38;;;;;;;16.85;2.30;;;9.20;99.90;;;;;;4980322;28;20094;-87
2023/04/13 07:34:04;;;;;;;24.13;3.63;;;9.90;99.90;;;;;;4993978;28;20069;-88
2023/04/13 07:36:30;;;;;;;22.58;2.63;;;10.10;99.90;;;;;;4994177;28;20105;-88
2023/04/13 07:38:56;;;;;;;12.10;2.53;;;10.10;99.90;;;;;;4993692;28;20034;-88
2023/04/13 07:41:37;;;;;;;14.52;3.58;;;9.70;99.90;;;;;;4975179;28;20042;-89
2023/04/13 07:44:28;;;;;;;14.30;2.92;;;10.40;99.90;;;;;;4972727;28;20019;-86
2023/04/13 07:47:02;;;;;;;17.98;2.97;;;9.00;99.90;;;;;;4988041;28;20022;-86
2023/04/13 07:49:40;;;;;;;18.98;3.00;;;10.20;99.90;;;;;;4998338;28;20111;-87
2023/04/13 07:52:06;;;;;;;17.95;2.58;;;9.30;99.90;;;;;;4995046;28;20027;-88
2023/04/13 07:54:33;;;;;;;13.38;3.33;;;9.50;99.90;;;;;;4993087;28;20041;-89
2023/04/13 07:57:01;;;;;;;13.50;2.63;;;9.50;99.90;;;;;;4993073;28;20438;-88
2023/04/13 07:59:26;;;;;;;11.02;2.10;;;9.50;99.90;;;;;;4992430;28;20038;-85
2023/04/13 08:01:52;;;;;;;12.77;2.38;;;9.50;99.90;;;;;;4989782;28;20026;-85
2023/04/13 08:04:17;;;;;;;14.52;2.20;;;9.60;99.90;;;;;;4989723;28;20019;-87
2023/04/13 08:06:43;;;;;;;12.23;2.40;;;9.60;99.90;;;;;;4988624;28;20073;-85
2023/04/13 08:09:09;;;;;;;12.73;2.17;;;9.60;99.90;;;;;;4991566;28;20018;-87
2023/04/13 08:11:43;;;;;;;12.30;2.13;;;9.70;99.90;;;;;;4992584;28;20173;-87
2023/04/13 08:14:10;;;;;;;17.77;3.00;;;10.50;99.90;;;;;;4993221;28;20033;-86
2023/04/13 08:16:48;;;;;;;19.38;2.42;;;10.40;99.90;;;;;;4993361;28;20139;-87
2023/04/13 08:19:26;;;;;;;21.08;3.05;;;10.50;99.90;;;;;;4993313;28;20031;-86
2023/04/13 08:21:52;;;;;;;20.02;2.80;;;10.50;99.90;;;;;;4991683;28;20057;-86
2023/04/13 08:24:30;;;;;;;7.75;2.17;;;9.80;99.90;;;;;;4991140;28;20080;-86
2023/04/13 08:27:11;;;;;;;14.43;2.40;;;10.10;99.90;;;;;;4991807;28;20110;-86
2023/04/13 08:29:36;;;;;;;15.20;3.00;;;10.30;99.90;;;;;;4990111;28;20065;-86
2023/04/13 08:32:02;;;;;;;16.50;2.75;;;9.70;99.90;;;;;;4989499;28;20034;-86
2023/04/13 08:34:46;;;;;;;17.98;2.85;;;9.70;99.90;;;;;;4991392;28;20108;-87
2023/04/13 08:37:15;;;;;;;8.55;2.22;;;10.30;99.90;;;;;;4987991;28;20113;-86
2023/04/13 08:39:41;;;;;;;15.77;2.58;;;10.60;99.90;;;;;;4973031;28;20026;-87
2023/04/13 08:42:09;;;;;;;17.10;2.58;;;11.00;99.90;;;;;;4971895;28;20023;-86
2023/04/13 08:44:39;;;;;;;16.75;3.13;;;10.70;99.90;;;;;;4972553;28;20031;-87
2023/04/13 08:47:10;;;;;;;16.95;2.45;;;10.40;99.90;;;;;;4973034;28;20031;-85
2023/04/13 08:49:54;;;;;;;15.98;2.22;;;10.80;99.90;;;;;;4972949;28;20090;-86
2023/04/13 08:52:20;;;;;;;15.98;2.75;;;9.80;99.90;;;;;;4972188;28;20026;-86
2023/04/13 08:55:01;;;;;;;11.68;2.22;;;9.80;99.90;;;;;;4973853;28;20395;-87
2023/04/13 08:57:28;;;;;;;14.45;2.60;;;10.80;99.90;;;;;;4973352;28;20030;-86
2023/04/13 09:00:15;;;;;;;17.60;2.47;;;10.90;99.90;;;;;;4970985;28;20033;-86
2023/04/13 09:02:46;;;;;;;14.25;3.28;;;10.00;99.90;;;;;;4971840;28;20073;-86
2023/04/13 09:05:14;;;;;;;14.77;2.95;;;11.00;99.90;;;;;;4970876;28;20026;-86
2023/04/13 09:08:03;;;;;;;14.90;2.83;;;10.10;99.90;;;;;;4971618;28;20525;-88
2023/04/13 09:10:35;;;;;;;10.10;2.50;;;10.10;99.90;;;;;;4971467;28;20031;-89
2023/04/13 09:13:20;;;;;;;13.43;2.28;;;10.40;99.90;;;;;;4977889;28;20026;-91
2023/04/13 09:15:48;;;;;;;12.65;2.70;;;10.80;99.90;;;;;;4984794;28;20051;-91
2023/04/13 09:18:15;;;;;;;15.13;2.45;;;10.10;99.90;;;;;;4973511;28;20062;-87
2023/04/13 09:20:56;;;;;;;14.00;2.10;;;9.90;99.90;;;;;;4971618;28;20467;-89
2023/04/13 09:26:23;;;;;;;10.50;2.25;;;11.20;99.90;;;;;;4979198;28;20042;-86
2023/04/13 09:28:58;;;;;;;10.32;3.40;;;10.10;99.90;;;;;;4990556;28;20031;-90
2023/04/13 09:31:45;;;;;;;13.90;2.60;;;10.10;99.90;;;;;;4992479;28;20085;-93
2023/04/13 09:34:27;;;;;;;16.25;2.63;;;10.70;99.90;;;;;;4978460;28;20072;-88
2023/04/13 09:36:53;;;;;;;13.98;2.38;;;11.00;99.90;;;;;;4972986;28;20073;-88
2023/04/13 09:39:27;;;;;;;15.35;2.80;;;10.60;99.90;;;;;;4967590;28;20047;-90
2023/04/13 09:42:09;;;;;;;10.13;2.60;;;11.30;99.90;;;;;;4968156;28;20077;-89
2023/04/13 09:44:54;;;;;;;11.07;2.33;;;10.20;99.90;;;;;;4966248;28;20038;-89
2023/04/13 09:47:37;;;;;;;15.02;2.28;;;10.00;99.90;;;;;;4964131;28;20508;-90
2023/04/13 09:51:12;;;;;;;10.00;2.67;;;10.30;99.90;;;;;;4964123;28;20051;-92
2023/04/13 09:54:04;;;;;;;12.88;2.75;;;10.20;99.90;;;;;;4976495;28;20038;-88
2023/04/13 09:56:43;;;;;;;12.00;1.73;;;10.10;99.90;;;;;;4990226;28;20080;-90
2023/04/13 09:59:22;;;;;;;12.60;3.45;;;10.20;99.90;;;;;;4992730;28;20038;-89
2023/04/13 10:01:48;;;;;;;10.65;1.88;;;10.10;99.90;;;;;;4992019;28;20425;-85
2023/04/13 10:04:23;;;;;;;10.98;2.70;;;10.20;99.90;;;;;;4993140;28;20033;-91
2023/04/13 10:07:08;;;;;;;9.38;1.45;;;10.10;99.90;;;;;;4993269;28;20050;-92
2023/04/13 10:09:53;;;;;;;11.95;1.90;;;11.40;99.90;;;;;;4991681;28;20026;-89
2023/04/13 10:12:18;;;;;;;11.93;2.10;;;11.00;99.90;;;;;;4984720;23;20067;-90
2023/04/13 10:17:52;;;;;;;8.57;2.10;;;10.20;99.90;;;;;;5031035;22;20137;-89
2023/04/13 10:20:41;;;;;;;9.23;2.38;;;11.30;99.90;;;;;;4973661;28;20034;-90
2023/04/13 10:23:07;;;;;;;11.25;1.90;;;10.30;99.90;;;;;;4944283;28;20059;-90
2023/04/13 10:26:10;;;;;;;14.93;2.28;;;10.90;99.90;;;;;;4973761;28;20037;-90
2023/04/13 10:28:43;;;;;;;12.80;2.50;;;10.20;99.90;;;;;;4975904;28;20023;-91
2023/04/13 10:31:21;;;;;;;10.23;2.38;;;10.80;99.90;;;;;;4976167;28;20073;-89
2023/04/13 10:33:56;;;;;;;15.80;2.50;;;10.10;99.90;;;;;;4976912;28;20118;-90
2023/04/13 10:36:22;;;;;;;10.43;2.53;;;9.50;99.90;;;;;;4987722;28;20061;-88
2023/04/13 10:38:47;;;;;;;13.90;2.42;;;10.60;99.90;;;;;;4977046;28;20038;-88
2023/04/13 10:41:27;;;;;;;15.65;2.97;;;11.10;99.90;;;;;;4976133;28;20027;-87
2023/04/13 10:44:06;;;;;;;17.92;2.40;;;11.30;99.90;;;;;;4977157;28;20031;-88
2023/04/13 10:46:35;;;;;;;12.77;1.90;;;10.70;99.90;;;;;;4939267;28;20070;-88
2023/04/13 10:49:02;;;;;;;19.25;3.67;;;10.30;99.90;;;;;;4980353;28;20369;-88
2023/04/13 10:52:02;;;;;;;13.30;2.55;;;11.20;99.90;;;;;;4976620;28;20089;-88
2023/04/13 10:54:39;;;;;;;12.55;2.88;;;10.30;99.90;;;;;;4958612;29;20031;-89
2023/04/13 10:57:07;;;;;;;9.57;2.25;;;9.10;99.90;;;;;;4955110;29;20035;-89
2023/04/13 10:59:54;;;;;;;10.38;2.22;;;11.30;99.90;;;;;;4950154;29;20047;-89
2023/04/13 11:03:05;;;;;;;12.27;2.35;;;11.10;99.90;;;;;;4956796;29;20031;-88
2023/04/13 11:05:56;;;;;;;;;;;10.30;99.90;;;;;;4903418;28;20035;-88
2023/04/13 11:08:26;;;;;;;15.05;2.10;;;10.40;99.90;;;;;;4975776;28;19913;-89
2023/04/13 11:10:56;;;;;;;13.40;2.70;;;11.30;99.90;;;;;;4975886;28;20410;-89
2023/04/13 11:13:33;;;;;;;11.27;2.05;;;10.50;99.90;;;;;;4975426;28;20061;-89
2023/04/13 11:16:02;;;;;;;15.00;2.05;;;11.30;99.90;;;;;;4975264;28;20455;-88
2023/04/13 11:18:36;;;;;;;11.60;2.90;;;11.60;99.90;;;;;;4957897;28;20050;-88
2023/04/13 11:21:26;;;;;;;;;;;;;;;;;;;;;
2023/04/13 11:23:52;;;;;;;8.60;1.97;;;10.50;99.90;;;;;;4938989;28;20538;-88
2023/04/13 11:26:37;;;;;;;13.48;1.80;;;11.10;99.90;;;;;;4972872;28;20114;-88
2023/04/13 11:29:19;;;;;;;8.18;2.10;;;10.60;99.90;;;;;;4973390;28;20107;-88
2023/04/13 11:31:59;;;;;;;11.75;2.50;;;11.20;99.90;;;;;;4978121;28;20018;-88
2023/04/13 11:34:28;;;;;;;8.63;2.10;;;11.00;99.90;;;;;;4973572;28;20027;-89
2023/04/13 11:37:10;;;;;;;12.80;2.10;;;11.40;99.90;;;;;;4974546;28;20089;-89
2023/04/13 11:39:37;;;;;;;18.35;2.83;;;10.00;99.90;;;;;;4974699;28;20046;-88
2023/04/13 11:42:19;;;;;;;12.45;2.30;;;11.50;99.90;;;;;;4976226;28;20093;-89
2023/04/13 11:44:47;;;;;;;18.23;2.90;;;10.00;99.90;;;;;;4973239;28;20042;-88
2023/04/13 11:47:17;;;;;;;11.45;2.13;;;11.20;99.90;;;;;;4972772;28;20174;-87
2023/04/13 11:49:46;;;;;;;16.77;2.45;;;11.60;99.90;;;;;;4972986;28;20065;-90
2023/04/13 11:52:12;;;;;;;11.97;2.27;;;11.30;99.90;;;;;;4974501;28;20034;-89
2023/04/13 11:54:42;;;;;;;13.07;2.78;;;10.40;99.90;;;;;;4973929;28;20034;-87
2023/04/13 11:57:23;;;;;;;19.58;3.65;;;11.30;99.90;;;;;;4974186;28;20030;-86
2023/04/13 12:00:12;;;;;;;13.10;2.30;;;10.40;99.90;;;;;;4973739;28;20074;-87
2023/04/13 12:02:49;;;;;;;15.15;2.55;;;10.50;99.90;;;;;;4974733;28;20102;-87
2023/04/13 12:05:25;;;;;;;12.27;2.40;;;12.10;99.90;;;;;;4974286;28;20061;-87
2023/04/13 12:08:18;;;;;;;9.30;2.30;;;10.70;99.90;;;;;;4974232;28;20033;-87
2023/04/13 12:10:56;;;;;;;16.85;2.20;;;11.50;99.90;;;;;;4970940;28;20380;-87
2023/04/13 12:13:41;;;;;;;11.02;2.13;;;11.60;99.90;;;;;;4973683;28;20034;-85
2023/04/13 12:16:07;;;;;;;15.82;2.45;;;10.90;99.90;;;;;;4973132;28;20053;-86
2023/04/13 12:18:59;;;;;;;17.73;2.30;;;11.10;99.90;;;;;;4973298;28;20170;-86
2023/04/13 12:21:25;;;;;;;15.13;2.35;;;11.70;99.90;;;;;;4960168;28;20094;-87
2023/04/13 12:23:55;;;;;;;11.23;2.83;;;12.10;99.90;;;;;;4992065;28;20414;-86
2023/04/13 12:26:23;;;;;;;10.85;1.95;;;12.10;99.90;;;;;;4987304;28;20471;-88
2023/04/13 12:28:58;;;;;;;10.25;2.45;;;12.10;99.90;;;;;;4979624;28;20058;-90
2023/04/13 12:31:37;;;;;;;13.23;2.30;;;11.50;99.90;;;;;;4980425;28;20110;-89
2023/04/13 12:34:06;;;;;;;12.05;2.38;;;11.10;99.90;;;;;;4974644;28;20065;-91
2023/04/13 12:36:53;;;;;;;13.20;2.40;;;11.10;99.90;;;;;;4973080;28;20502;-87
2023/04/13 12:39:34;;;;;;;14.15;2.10;;;12.00;99.90;;;;;;4973833;28;20035;-89
2023/04/13 12:42:20;;;;;;;;;;;11.90;99.90;;;;;;4982558;28;20033;-88
2023/04/13 12:45:05;;;;;;;18.00;2.67;;;12.10;99.90;;;;;;4980639;28;20540;-88
2023/04/13 12:47:31;;;;;;;15.10;2.22;;;11.70;99.90;;;;;;4981845;28;20442;-90
2023/04/13 12:49:59;;;;;;;13.55;3.03;;;12.10;99.90;;;;;;4979570;28;20027;-88
2023/04/13 12:52:43;;;;;;;9.32;2.30;;;11.80;99.90;;;;;;4989198;23;20102;-89
2023/04/13 12:55:14;;;;;;;11.05;2.35;;;12.40;99.90;;;;;;4980030;28;20027;-89
2023/04/13 12:57:55;;;;;;;9.13;1.92;;;12.40;99.90;;;;;;4969669;28;20030;-89
2023/04/13 13:00:24;;;;;;;14.68;2.60;;;12.00;99.90;;;;;;4965410;28;20034;-89
2023/04/13 13:03:10;;;;;;;8.45;1.77;;;11.40;99.90;;;;;;4973535;28;20027;-89
2023/04/13 13:05:47;;;;;;;9.32;2.15;;;11.30;99.90;;;;;;4976235;28;20429;-89
2023/04/13 13:08:34;;;;;;;8.32;1.98;;;12.00;99.90;;;;;;4973503;28;20031;-90
2023/04/13 13:11:07;;;;;;;12.32;1.60;;;11.80;99.90;;;;;;4968397;28;20061;-89
2023/04/13 13:13:33;;;;;;;12.38;1.92;;;11.20;99.90;;;;;;4972560;28;20105;-89
2023/04/13 13:16:20;;;;;;;9.50;2.40;;;11.60;99.90;;;;;;4973533;28;20463;-92
2023/04/13 13:19:09;;;;;;;5.95;1.55;;;11.40;99.90;;;;;;4971710;28;20063;-90
2023/04/13 13:21:44;;;;;;;9.98;1.77;;;10.80;99.90;;;;;;4972867;28;20033;-90
2023/04/13 13:24:28;;;;;;;9.73;1.95;;;12.40;99.90;;;;;;4974377;28;20056;-90
2023/04/13 13:27:15;;;;;;;8.90;2.05;;;10.90;99.90;;;;;;4976592;28;20027;-89
2023/04/13 13:29:50;;;;;;;10.45;2.28;;;11.50;99.90;;;;;;4978079;28;20537;-90
2023/04/13 13:32:35;;;;;;;7.47;1.45;;;12.40;99.90;;;;;;4950174;29;20471;-88
2023/04/13 13:35:01;;;;;;;8.57;1.95;;;12.00;99.90;;;;;;4951465;29;20051;-88
2023/04/13 13:37:28;;;;;;;11.75;2.03;;;12.10;99.90;;;;;;4954324;28;20399;-88
2023/04/13 13:39:54;;;;;;;16.77;1.92;;;12.60;99.90;;;;;;4981595;28;20126;-89
2023/04/13 13:42:31;;;;;;;13.05;2.38;;;12.50;99.90;;;;;;4973841;28;20161;-89
2023/04/13 13:45:07;;;;;;;9.15;1.88;;;11.70;99.90;;;;;;4972124;28;20027;-89